createdAt,value
2022-12-23T14:21:30.347Z,5.30
2022-12-23T14:24:16.486Z,7.45
2022-12-23T14:27:02.275Z,6.68
2022-12-23T14:33:23.879Z,7.20
2022-12-23T14:38:29.113Z,4.43
2022-12-23T14:41:23.968Z,4.78
2022-12-23T14:43:56.497Z,6.47
2022-12-23T14:46:37.097Z,7.85
2022-12-23T14:49:39.530Z,6.82
2022-12-23T14:52:46.757Z,7.88
2022-12-23T14:55:52.361Z,9.43
2022-12-23T14:58:32.264Z,8.07
2022-12-23T15:01:00.031Z,9.63
2022-12-23T15:03:33.667Z,8.93
2022-12-23T15:06:06.188Z,7.53
2022-12-23T15:08:40.673Z,8.73
2022-12-23T15:11:18.443Z,5.90
2022-12-23T15:13:47.178Z,7.28
2022-12-23T15:16:17.651Z,6.75
2022-12-23T15:18:53.075Z,6.68
2022-12-23T15:21:27.616Z,8.35
2022-12-23T15:23:55.757Z,8.02
2022-12-23T15:30:12.365Z,23.38
2022-12-23T15:32:42.813Z,15.90
2022-12-23T15:35:17.767Z,15.07
2022-12-23T15:37:49.834Z,9.93
2022-12-23T15:44:39.097Z,10.95
2022-12-23T15:47:39.061Z,11.05
2022-12-23T15:50:13.641Z,15.60
2022-12-23T15:52:44.859Z,12.18
2022-12-23T15:55:40.877Z,31.70
2022-12-23T15:58:18.990Z,29.83
2022-12-23T16:00:56.292Z,20.48
2022-12-23T16:03:38.883Z,17.20
2022-12-23T16:08:34.892Z,11.02
2022-12-23T16:11:19.413Z,10.30
2022-12-23T16:14:02.493Z,8.98
2022-12-23T16:16:37.097Z,9.45
2022-12-23T16:19:06.207Z,10.95
2022-12-23T16:21:36.498Z,10.40
2022-12-23T16:24:09.460Z,9.88
2022-12-23T16:29:11.499Z,11.18
2022-12-23T16:31:44.285Z,12.82
2022-12-23T16:34:16.670Z,12.05
2022-12-23T16:36:44.784Z,10.85
2022-12-23T16:39:23.216Z,9.75
2022-12-23T16:41:51.142Z,13.13
2022-12-23T16:44:20.286Z,17.10
2022-12-23T16:46:50.634Z,18.10
2022-12-23T16:49:21.476Z,27.48
2022-12-23T16:51:49.443Z,15.88
2022-12-23T16:54:20.202Z,11.10
2022-12-23T16:56:48.254Z,20.08
2022-12-23T16:59:16.497Z,52.35
2022-12-23T17:01:49.100Z,34.63
2022-12-23T17:04:17.391Z,23.05
2022-12-23T17:06:45.288Z,17.25
2022-12-23T17:09:13.760Z,17.77
2022-12-23T17:11:44.849Z,15.52
2022-12-23T17:14:21.385Z,15.63
2022-12-23T17:16:50.178Z,14.73
2022-12-23T17:19:27.975Z,17.45
2022-12-23T17:22:01.462Z,17.88
2022-12-23T17:26:57.700Z,16.45
2022-12-23T17:29:25.894Z,14.02
2022-12-23T17:31:54.156Z,15.60
2022-12-23T17:34:24.599Z,13.60
2022-12-23T17:36:52.994Z,19.35
2022-12-23T17:39:23.668Z,17.30
2022-12-23T17:41:51.788Z,17.17
2022-12-23T17:44:20.424Z,17.17
2022-12-23T17:46:51.506Z,19.08
2022-12-23T17:49:19.656Z,18.75
2022-12-23T17:51:47.611Z,17.08
2022-12-23T17:54:22.621Z,20.15
2022-12-23T17:56:50.939Z,20.15
2022-12-23T17:59:19.230Z,19.58
2022-12-23T18:01:47.299Z,19.85
2022-12-23T18:04:18.276Z,18.63
2022-12-23T18:34:22.406Z,45.90
2022-12-23T19:14:38.603Z,98.00
2022-12-23T19:17:05.956Z,56.40
2022-12-23T19:19:33.557Z,45.00
2022-12-23T19:22:00.910Z,59.95
2022-12-23T19:24:28.541Z,56.97
2022-12-23T19:26:55.889Z,73.80
2022-12-23T19:29:23.475Z,79.47
2022-12-23T19:31:50.779Z,78.78
2022-12-23T19:34:18.466Z,90.20
2022-12-23T19:36:45.870Z,84.93
2022-12-23T19:39:13.719Z,63.08
2022-12-23T19:41:41.010Z,50.70
2022-12-23T19:44:08.632Z,62.08
2022-12-23T19:46:36.019Z,46.33
2022-12-23T19:49:03.713Z,46.75
2022-12-23T19:51:31.038Z,73.70
2022-12-23T19:53:58.644Z,57.38
2022-12-23T19:56:25.964Z,52.38
2022-12-23T19:58:53.603Z,58.40
2022-12-23T20:01:22.258Z,64.95
2022-12-23T20:03:50.200Z,75.32
2022-12-23T20:06:20.213Z,66.60
2022-12-23T20:08:47.963Z,49.90
2022-12-23T20:11:16.864Z,46.83
2022-12-23T20:13:45.084Z,61.42
2022-12-23T20:16:15.131Z,57.33
2022-12-23T20:18:42.858Z,48.92
2022-12-23T20:21:10.215Z,59.20
2022-12-23T20:23:37.845Z,91.38
2022-12-23T20:26:05.196Z,91.25
2022-12-23T20:28:33.060Z,85.53
2022-12-23T20:31:07.908Z,60.00
2022-12-23T20:33:36.270Z,42.85
2022-12-23T20:36:05.248Z,38.25
2022-12-23T20:38:36.186Z,53.33
2022-12-23T20:41:03.545Z,58.03
2022-12-23T20:43:31.568Z,67.32
2022-12-23T20:46:19.022Z,88.47
2022-12-23T20:48:46.720Z,52.58
2022-12-23T20:51:15.596Z,72.13
2022-12-23T20:53:43.846Z,39.40
2022-12-23T20:56:17.233Z,36.78
2022-12-23T20:58:54.826Z,44.00
2022-12-23T21:01:24.467Z,40.35
2022-12-23T21:04:03.053Z,41.90
2022-12-23T21:06:48.874Z,44.40
2022-12-23T21:09:29.624Z,46.05
2022-12-23T21:15:01.040Z,45.72
2022-12-23T21:17:40.089Z,41.88
2022-12-23T21:20:24.629Z,42.50
2022-12-23T21:22:59.927Z,43.45
2022-12-23T21:25:31.415Z,45.92
2022-12-23T21:28:07.599Z,49.50
2022-12-23T21:30:39.671Z,44.10
2022-12-23T21:33:10.574Z,53.05
2022-12-23T21:35:45.710Z,53.83
2022-12-23T21:38:16.012Z,51.75
2022-12-23T21:40:54.287Z,52.80
2022-12-23T21:43:27.108Z,62.10
2022-12-23T21:46:00.885Z,53.40
2022-12-23T21:48:31.470Z,53.70
2022-12-23T21:51:11.775Z,56.22
2022-12-23T21:54:18.478Z,47.33
2022-12-23T21:56:51.253Z,49.22
2022-12-23T21:59:34.580Z,50.95
2022-12-23T22:02:15.586Z,47.45
2022-12-23T22:05:05.276Z,38.95
2022-12-23T22:10:56.464Z,37.75
2022-12-23T22:13:27.853Z,30.67
2022-12-23T23:40:33.228Z,18.65
2022-12-23T23:43:00.891Z,19.55
2022-12-23T23:45:28.203Z,18.58
2022-12-23T23:50:24.205Z,18.88
